Time;durP1;ratioP1;P1;durP2;ratioP2;P2;SDS_P1;SDS_P2;PMS_P1;PMS_P2;Temp;Humidity;BMP_temperature;BMP_pressure;BME280_temperature;BME280_humidity;BME280_pressure;Samples;Min_cycle;Max_cycle;Signal;HPM_P1;HPM_P2
2022/02/20 00:01:33;;;;;;;4.40;1.53;;;;;;;3.28;88.66;100022.47;5041882;28;20055;-82
2022/02/20 00:03:59;;;;;;;3.37;1.33;;;;;;;3.28;90.67;100017.25;5020582;28;20060;-81
2022/02/20 00:06:26;;;;;;;3.30;1.20;;;;;;;3.39;92.37;100012.00;5011874;28;20466;-80
2022/02/20 00:08:53;;;;;;;4.23;1.33;;;;;;;3.36;92.85;100015.50;5020432;28;20041;-83
2022/02/20 00:11:19;;;;;;;2.37;1.57;;;;;;;3.33;93.24;99999.81;5037131;28;20048;-83
2022/02/20 00:13:46;;;;;;;5.60;1.70;;;;;;;3.30;94.97;100005.06;5019380;28;20073;-79
2022/02/20 00:16:13;;;;;;;3.97;1.37;;;;;;;3.26;95.13;100010.28;5003395;28;20045;-85
2022/02/20 00:18:40;;;;;;;2.80;1.17;;;;;;;3.42;96.89;100006.75;5019829;28;20040;-80
2022/02/20 00:21:06;;;;;;;3.93;1.40;;;;;;;3.37;97.68;100000.69;5035536;28;20037;-80
2022/02/20 00:23:33;;;;;;;5.20;1.20;;;;;;;3.29;100.00;99998.09;5019488;28;20067;-82
2022/02/20 00:26:00;;;;;;;5.50;2.47;;;;;;;3.32;100.00;99987.63;5034620;28;20052;-80
2022/02/20 00:28:26;;;;;;;5.53;1.73;;;;;;;3.34;100.00;99993.72;5018266;28;20049;-80
2022/02/20 00:30:53;;;;;;;2.70;1.20;;;;;;;3.31;100.00;99990.25;5051513;28;20049;-82
2022/02/20 00:33:20;;;;;;;3.23;1.50;;;;;;;3.25;100.00;99988.53;5018007;28;20045;-81
2022/02/20 00:35:46;;;;;;;3.30;1.30;;;;;;;3.22;100.00;99982.44;5003006;28;20052;-79
2022/02/20 00:38:13;;;;;;;4.20;1.50;;;;;;;3.25;100.00;99985.91;5016448;28;20052;-79
2022/02/20 00:40:40;;;;;;;2.67;1.60;;;;;;;3.21;100.00;99989.41;5010699;28;20530;-82
2022/02/20 00:43:07;;;;;;;2.73;1.40;;;;;;;3.12;100.00;99978.13;5033051;28;20466;-80
2022/02/20 00:45:34;;;;;;;6.93;2.00;;;;;;;3.09;100.00;99973.75;5037403;28;20049;-84
2022/02/20 00:48:01;;;;;;;3.10;1.40;;;;;;;3.10;100.00;99970.25;5016378;28;20048;-80
2022/02/20 00:50:28;;;;;;;3.40;1.40;;;;;;;3.04;100.00;99972.91;5015631;28;20040;-80
2022/02/20 00:52:55;;;;;;;3.63;1.60;;;;;;;3.00;100.00;99971.16;5015065;28;20052;-79
2022/02/20 00:55:22;;;;;;;3.73;1.60;;;;;;;2.99;100.00;99966.81;5021348;28;20099;-80
2022/02/20 00:57:48;;;;;;;3.87;1.90;;;;;;;2.95;100.00;99957.25;5017892;28;20038;-80
2022/02/20 01:00:15;;;;;;;3.73;1.50;;;;;;;2.93;100.00;99957.22;5034995;28;20052;-80
2022/02/20 01:02:42;;;;;;;3.27;1.70;;;;;;;2.99;100.00;99954.63;5028472;28;20511;-79
2022/02/20 01:05:09;;;;;;;3.10;1.40;;;;;;;2.83;100.00;99953.78;5020180;28;20041;-79
2022/02/20 01:07:36;;;;;;;5.03;1.80;;;;;;;2.82;100.00;99946.81;5017152;28;20044;-80
2022/02/20 01:10:05;;;;;;;2.80;1.90;;;;;;;2.90;100.00;99938.13;5017810;28;20056;-80
2022/02/20 01:12:31;;;;;;;2.83;1.50;;;;;;;2.82;100.00;99939.00;5034279;28;20094;-81
2022/02/20 01:14:58;;;;;;;2.50;1.90;;;;;;;2.85;100.00;99932.03;5016855;28;20136;-79
2022/02/20 01:17:25;;;;;;;3.43;1.70;;;;;;;2.79;100.00;99923.34;5017278;28;20492;-80
2022/02/20 01:19:53;;;;;;;4.60;1.67;;;;;;;2.75;100.00;99923.34;5017827;28;20056;-80
2022/02/20 01:22:21;;;;;;;6.43;1.60;;;;;;;2.76;100.00;99928.56;5017599;28;20080;-80
2022/02/20 01:24:47;;;;;;;4.47;2.00;;;;;;;2.74;100.00;99913.78;5037115;28;20508;-81
2022/02/20 01:27:14;;;;;;;6.00;2.00;;;;;;;2.72;100.00;99913.78;5015568;28;20519;-81
2022/02/20 01:29:41;;;;;;;5.13;1.90;;;;;;;2.66;100.00;99912.91;5016638;28;20049;-80
2022/02/20 01:32:07;;;;;;;3.20;1.87;;;;;;;2.68;100.00;99904.22;5027242;28;20041;-81
2022/02/20 01:34:34;;;;;;;3.13;1.57;;;;;;;2.72;100.00;99898.13;5017417;28;20052;-81
2022/02/20 01:37:01;;;;;;;3.77;1.60;;;;;;;2.67;100.00;99894.66;5032899;28;20053;-80
2022/02/20 01:39:27;;;;;;;3.80;1.70;;;;;;;2.63;100.00;99892.06;5014182;28;20095;-81
2022/02/20 01:41:54;;;;;;;3.93;1.80;;;;;;;2.69;100.00;99895.56;5048941;28;20048;-80
2022/02/20 01:44:21;;;;;;;5.87;2.20;;;;;;;2.72;100.00;99887.72;5037198;28;20039;-80
2022/02/20 01:46:49;;;;;;;4.23;1.80;;;;;;;2.64;100.00;99879.03;5020810;28;20045;-81
2022/02/20 01:49:18;;;;;;;3.70;2.10;;;;;;;2.62;100.00;99877.28;5020978;28;20067;-82
2022/02/20 01:51:45;;;;;;;3.70;1.73;;;;;;;2.63;100.00;99861.66;5022118;28;20135;-80
2022/02/20 01:54:12;;;;;;;2.70;1.60;;;;;;;2.62;100.00;99864.25;5021485;28;20048;-80
2022/02/20 01:56:39;;;;;;;3.40;1.50;;;;;;;2.58;100.00;99847.72;5015083;28;20038;-80
2022/02/20 01:59:05;;;;;;;4.27;2.40;;;;;;;2.64;100.00;99852.94;5031155;28;20083;-80
2022/02/20 02:01:32;;;;;;;3.13;1.90;;;;;;;2.59;100.00;99844.25;5038071;28;20041;-82
2022/02/20 02:03:59;;;;;;;3.73;1.90;;;;;;;2.58;100.00;99834.69;5001372;28;20407;-81
2022/02/20 02:06:28;;;;;;;2.07;1.60;;;;;;;2.54;100.00;99833.84;5003977;28;20040;-80
2022/02/20 02:08:55;;;;;;;5.00;2.00;;;;;;;2.59;100.00;99831.22;5023062;28;20563;-80
2022/02/20 02:11:22;;;;;;;5.73;2.17;;;;;;;2.54;100.00;99831.22;5022792;28;20112;-83
2022/02/20 02:13:49;;;;;;;3.87;1.90;;;;;;;2.52;100.00;99824.25;5039126;28;20045;-80
2022/02/20 02:16:15;;;;;;;3.47;1.90;;;;;;;2.49;100.00;99819.06;5019255;28;20495;-79
2022/02/20 02:18:42;;;;;;;3.20;2.50;;;;;;;2.40;100.00;99816.47;5037324;28;20734;-80
2022/02/20 02:21:09;;;;;;;3.03;2.00;;;;;;;2.41;100.00;99813.84;5005750;28;20496;-82
2022/02/20 02:23:35;;;;;;;3.00;1.73;;;;;;;2.44;100.00;99810.41;5022498;28;20041;-82
2022/02/20 02:26:02;;;;;;;3.60;1.87;;;;;;;2.46;100.00;99813.88;5041329;28;20049;-83
2022/02/20 02:28:34;;;;;;;6.10;2.20;;;;;;;2.46;100.00;99800.81;5040159;28;20048;-82
2022/02/20 02:31:03;;;;;;;4.20;1.93;;;;;;;2.46;100.00;99793.00;5000957;28;20049;-83
2022/02/20 02:33:31;;;;;;;3.53;1.90;;;;;;;2.45;100.00;99786.94;5039870;28;20037;-82
2022/02/20 02:35:59;;;;;;;2.93;2.10;;;;;;;2.46;100.00;99782.59;5039281;28;20049;-81
2022/02/20 02:38:26;;;;;;;3.67;2.07;;;;;;;2.45;100.00;99776.50;5020132;28;20051;-82
2022/02/20 02:40:55;;;;;;;5.03;2.00;;;;;;;2.45;100.00;99776.50;5015581;28;20096;-83
2022/02/20 02:43:22;;;;;;;3.20;1.93;;;;;;;2.42;100.00;99770.41;5001753;28;20041;-82
2022/02/20 02:45:49;;;;;;;5.80;2.80;;;;;;;2.43;100.00;99772.13;5004980;28;20498;-81
2022/02/20 02:48:16;;;;;;;3.77;2.10;;;;;;;2.41;100.00;99773.88;5016979;28;20033;-82
2022/02/20 02:50:43;;;;;;;5.43;2.63;;;;;;;2.41;100.00;99768.66;5033872;28;20047;-81
2022/02/20 02:53:09;;;;;;;5.77;2.50;;;;;;;2.35;100.00;99763.47;5020901;28;20075;-83
2022/02/20 02:55:36;;;;;;;4.77;2.47;;;;;;;2.37;100.00;99765.22;5019931;28;20045;-82
2022/02/20 02:58:04;;;;;;;4.13;2.50;;;;;;;2.39;100.00;99763.47;5018817;28;20037;-80
2022/02/20 03:00:33;;;;;;;4.90;2.50;;;;;;;2.40;100.00;99761.72;5037039;28;20060;-82
2022/02/20 03:03:01;;;;;;;4.80;2.73;;;;;;;2.38;100.00;99753.91;5020484;28;20108;-82
2022/02/20 03:05:27;;;;;;;4.03;3.20;;;;;;;2.38;100.00;99750.44;5021033;28;20060;-80
2022/02/20 03:07:54;;;;;;;3.83;2.70;;;;;;;2.40;100.00;99754.78;5006196;28;20061;-82
2022/02/20 03:10:21;;;;;;;3.97;2.73;;;;;;;2.38;100.00;99750.44;5036679;28;20045;-81
2022/02/20 03:12:47;;;;;;;3.67;2.80;;;;;;;2.40;100.00;99751.31;5016387;28;20168;-81
2022/02/20 03:15:14;;;;;;;5.20;2.70;;;;;;;2.45;100.00;99749.56;5035555;28;20037;-83
2022/02/20 03:17:41;;;;;;;3.93;3.43;;;;;;;2.48;100.00;99746.94;5034580;28;20096;-82
2022/02/20 03:20:09;;;;;;;4.00;3.17;;;;;;;2.41;100.00;99746.06;5033393;28;20037;-83
2022/02/20 03:22:36;;;;;;;3.40;2.83;;;;;;;2.43;100.00;99740.84;5002485;28;20454;-82
2022/02/20 03:25:03;;;;;;;8.00;3.43;;;;;;;2.45;100.00;99746.97;5036312;28;20045;-81
2022/02/20 03:27:30;;;;;;;3.83;3.00;;;;;;;2.44;100.00;99750.44;5034828;28;20067;-80
2022/02/20 03:29:56;;;;;;;4.43;3.03;;;;;;;2.42;100.00;99749.56;5019419;28;20057;-82
2022/02/20 03:32:23;;;;;;;4.60;3.23;;;;;;;2.41;100.00;99738.25;5033013;28;20045;-80
2022/02/20 03:34:50;;;;;;;4.57;3.33;;;;;;;2.44;100.00;99745.22;5001022;28;20053;-81
2022/02/20 03:37:17;;;;;;;4.00;3.10;;;;;;;2.48;100.00;99734.78;5017320;28;20038;-81
2022/02/20 03:39:43;;;;;;;4.60;2.90;;;;;;;2.41;100.00;99734.78;5019116;28;20067;-80
2022/02/20 03:42:10;;;;;;;4.90;3.43;;;;;;;2.36;100.00;99746.97;4999097;28;20034;-79
2022/02/20 03:44:37;;;;;;;8.73;4.20;;;;;;;2.35;100.00;99740.00;4983350;28;20056;-83
2022/02/20 03:47:03;;;;;;;4.30;2.90;;;;;;;2.30;100.00;99739.16;5033660;28;20028;-82
2022/02/20 03:49:30;;;;;;;5.00;3.10;;;;;;;2.35;100.00;99742.59;5018634;28;20123;-80
2022/02/20 03:51:57;;;;;;;5.03;3.33;;;;;;;2.36;100.00;99740.03;5018673;28;20045;-84
2022/02/20 03:54:23;;;;;;;4.17;2.97;;;;;;;2.34;100.00;99735.66;5019647;28;20052;-81
2022/02/20 03:56:50;;;;;;;4.10;3.13;;;;;;;2.33;100.00;99726.97;5018850;28;20045;-80
2022/02/20 03:59:17;;;;;;;4.37;3.53;;;;;;;2.36;100.00;99739.16;5018183;28;20067;-81
2022/02/20 04:01:43;;;;;;;4.93;3.37;;;;;;;2.31;100.00;99730.47;5018098;28;20102;-81
2022/02/20 04:04:11;;;;;;;4.90;3.20;;;;;;;2.29;100.00;99740.91;5035304;28;20052;-80
2022/02/20 04:06:38;;;;;;;5.03;3.57;;;;;;;2.33;100.00;99737.41;5032978;28;20055;-81
2022/02/20 04:09:04;;;;;;;4.90;3.17;;;;;;;2.34;100.00;99736.53;5034636;28;20045;-81
2022/02/20 04:11:31;;;;;;;6.83;2.97;;;;;;;2.32;100.00;99734.81;5011224;28;20100;-81
2022/02/20 04:13:57;;;;;;;4.03;2.93;;;;;;;2.40;100.00;99735.66;5018299;28;20049;-83
2022/02/20 04:16:24;;;;;;;4.80;3.10;;;;;;;2.36;100.00;99740.03;5030956;28;20463;-84
2022/02/20 04:18:51;;;;;;;4.70;3.33;;;;;;;2.38;100.00;99743.50;5013180;28;20136;-78
2022/02/20 04:21:17;;;;;;;5.43;3.13;;;;;;;2.30;100.00;99745.25;5033000;28;20536;-80
2022/02/20 04:23:44;;;;;;;4.97;3.13;;;;;;;2.28;100.00;99741.78;5018207;28;20045;-80
2022/02/20 04:26:11;;;;;;;4.07;3.00;;;;;;;2.29;100.00;99740.91;5038366;28;20102;-80
2022/02/20 04:28:37;;;;;;;4.50;3.03;;;;;;;2.30;100.00;99737.44;5014551;28;20042;-79
2022/02/20 04:31:04;;;;;;;4.30;3.43;;;;;;;2.36;100.00;99744.38;4993961;28;20041;-82
2022/02/20 04:33:30;;;;;;;4.23;3.20;;;;;;;2.33;100.00;99739.16;5018465;28;20040;-79
2022/02/20 04:35:57;;;;;;;4.47;3.47;;;;;;;2.32;100.00;99740.88;5011692;28;20053;-79
2022/02/20 04:38:24;;;;;;;5.07;3.10;;;;;;;2.28;100.00;99740.91;5011220;28;20041;-79
2022/02/20 04:40:50;;;;;;;5.10;3.13;;;;;;;2.29;100.00;99742.66;5034380;28;20055;-82
2022/02/20 04:43:17;;;;;;;5.00;3.50;;;;;;;2.32;100.00;99746.09;5018036;28;20037;-81
2022/02/20 04:45:44;;;;;;;4.83;3.57;;;;;;;2.30;100.00;99750.47;5011833;28;20037;-79
2022/02/20 04:48:11;;;;;;;4.93;3.93;;;;;;;2.28;100.00;99751.34;5014277;28;20049;-80
2022/02/20 04:50:38;;;;;;;3.87;3.30;;;;;;;2.26;100.00;99754.78;5027175;28;20561;-80
2022/02/20 04:53:04;;;;;;;3.97;3.30;;;;;;;2.28;100.00;99762.63;5018039;28;20095;-79
2022/02/20 04:55:31;;;;;;;4.30;3.10;;;;;;;2.33;100.00;99762.59;5017318;28;20041;-82
2022/02/20 04:57:58;;;;;;;4.93;3.30;;;;;;;2.34;100.00;99760.00;5001706;28;20037;-80
2022/02/20 05:00:25;;;;;;;4.93;3.30;;;;;;;2.30;100.00;99758.28;5019210;28;20642;-78
2022/02/20 05:02:51;;;;;;;5.37;3.17;;;;;;;2.36;100.00;99760.00;5018570;28;20037;-78
2022/02/20 05:05:19;;;;;;;5.67;3.27;;;;;;;2.33;100.00;99763.47;5017436;28;20044;-79
2022/02/20 05:07:45;;;;;;;3.63;2.80;;;;;;;2.31;100.00;99772.16;5016631;28;20055;-80
2022/02/20 05:10:12;;;;;;;4.20;3.10;;;;;;;2.28;100.00;99761.75;5037807;28;20033;-78
2022/02/20 05:12:39;;;;;;;5.33;3.80;;;;;;;2.32;100.00;99758.25;5028478;28;20522;-83
2022/02/20 05:15:07;;;;;;;4.70;3.47;;;;;;;2.28;100.00;99748.72;5032942;28;20083;-79
2022/02/20 05:17:37;;;;;;;6.80;3.93;;;;;;;2.22;100.00;99755.69;5015785;28;20049;-80
2022/02/20 05:20:05;;;;;;;4.50;3.40;;;;;;;2.33;100.00;99757.38;5016828;28;20769;-82
2022/02/20 05:22:31;;;;;;;3.23;2.93;;;;;;;2.28;100.00;99757.41;5034273;28;20526;-82
2022/02/20 05:24:58;;;;;;;4.23;3.30;;;;;;;2.21;100.00;99759.16;5017320;28;20510;-80
2022/02/20 05:27:28;;;;;;;5.60;3.73;;;;;;;2.22;100.00;99771.31;5000131;28;20049;-80
2022/02/20 05:29:55;;;;;;;6.33;3.80;;;;;;;2.23;100.00;99767.84;5046958;28;20044;-81
2022/02/20 05:32:24;;;;;;;6.00;3.40;;;;;;;2.32;100.00;99769.56;5050956;28;20033;-80
2022/02/20 05:34:52;;;;;;;8.53;3.87;;;;;;;2.30;100.00;99776.53;5017509;28;20040;-79
2022/02/20 05:37:19;;;;;;;5.13;3.60;;;;;;;2.31;100.00;99773.03;5000524;28;20060;-80
2022/02/20 05:39:47;;;;;;;5.27;3.50;;;;;;;2.38;100.00;99773.91;5028998;28;20044;-80
2022/02/20 05:42:14;;;;;;;4.93;3.17;;;;;;;2.34;100.00;99780.84;5034922;28;20045;-81
2022/02/20 05:44:41;;;;;;;4.73;3.40;;;;;;;2.36;100.00;99783.47;5021479;28;20504;-80
2022/02/20 05:47:09;;;;;;;5.77;3.37;;;;;;;2.32;100.00;99779.13;5013020;28;20079;-79
2022/02/20 05:49:36;;;;;;;6.93;3.77;;;;;;;2.35;100.00;99785.19;4999575;28;20057;-83
2022/02/20 05:52:03;;;;;;;6.03;4.10;;;;;;;2.28;100.00;99788.69;5014306;28;20117;-81
2022/02/20 05:54:30;;;;;;;6.50;3.80;;;;;;;2.45;100.00;99793.88;5051211;28;20037;-80
2022/02/20 05:56:56;;;;;;;6.43;5.10;;;;;;;2.33;100.00;99797.34;5015760;28;20496;-81
2022/02/20 05:59:23;;;;;;;10.00;4.13;;;;;;;2.36;100.00;99801.72;5017695;28;20044;-80
2022/02/20 06:01:50;;;;;;;7.20;3.80;;;;;;;2.38;100.00;99805.19;5017054;28;20164;-81
2022/02/20 06:04:17;;;;;;;5.90;4.00;;;;;;;2.41;100.00;99813.00;5018920;28;20045;-83
2022/02/20 06:06:43;;;;;;;6.20;3.60;;;;;;;2.34;100.00;99819.94;5000175;28;20045;-81
2022/02/20 06:09:10;;;;;;;5.30;3.60;;;;;;;2.36;100.00;99818.22;5016912;28;20496;-79
2022/02/20 06:11:37;;;;;;;7.23;3.67;;;;;;;2.33;100.00;99823.41;5016624;28;20052;-82
2022/02/20 06:14:04;;;;;;;5.23;3.70;;;;;;;2.35;100.00;99823.41;5015600;28;20524;-82
2022/02/20 06:16:31;;;;;;;4.43;3.40;;;;;;;2.32;100.00;99826.03;5026153;28;20046;-81
2022/02/20 06:18:58;;;;;;;5.20;3.03;;;;;;;2.36;100.00;99825.19;5014876;28;20066;-79
2022/02/20 06:21:28;;;;;;;5.53;3.30;;;;;;;2.35;100.00;99831.22;5016560;28;20040;-81
2022/02/20 06:23:55;;;;;;;7.50;4.23;;;;;;;2.42;100.00;99827.75;5014169;28;20033;-79
2022/02/20 06:26:22;;;;;;;4.77;3.87;;;;;;;2.40;100.00;99835.59;5016367;28;20045;-82
2022/02/20 06:28:49;;;;;;;7.27;3.83;;;;;;;2.54;100.00;99827.75;5032727;28;20149;-80
2022/02/20 06:31:16;;;;;;;6.47;3.53;;;;;;;2.46;100.00;99839.94;5018386;28;20032;-81
2022/02/20 06:33:43;;;;;;;4.57;3.67;;;;;;;2.42;100.00;99838.19;5017773;28;20041;-79
2022/02/20 06:36:12;;;;;;;5.97;3.27;;;;;;;2.48;100.00;99846.00;5013283;28;20048;-81
2022/02/20 06:38:38;;;;;;;6.53;3.23;;;;;;;2.44;100.00;99846.91;5018664;28;20119;-80
2022/02/20 06:41:09;;;;;;;4.67;3.30;;;;;;;2.53;100.00;99852.97;5035815;28;20045;-79
2022/02/20 06:43:37;;;;;;;3.80;3.30;;;;;;;2.52;100.00;99865.97;5002667;28;20069;-80
2022/02/20 06:46:04;;;;;;;4.47;3.17;;;;;;;2.59;100.00;99872.06;5035951;28;20510;-81
2022/02/20 06:48:31;;;;;;;4.63;3.27;;;;;;;2.65;100.00;99872.06;5002826;28;20049;-79
2022/02/20 06:50:58;;;;;;;5.03;3.23;;;;;;;2.63;100.00;99873.81;5002749;28;20124;-82
2022/02/20 06:53:25;;;;;;;5.37;3.20;;;;;;;2.61;100.00;99873.81;5036149;28;20048;-79
2022/02/20 06:55:52;;;;;;;4.40;3.00;;;;;;;2.58;100.00;99886.84;5019251;28;20091;-80
2022/02/20 06:58:19;;;;;;;5.30;3.30;;;;;;;2.65;100.00;99885.09;5026358;28;20037;-80
2022/02/20 07:00:45;;;;;;;9.13;5.17;;;;;;;2.68;100.00;99892.91;5034810;28;20483;-79
2022/02/20 07:03:12;;;;;;;7.20;3.10;;;;;;;2.80;100.00;99903.34;5013737;28;20495;-82
2022/02/20 07:05:40;;;;;;;5.57;3.33;;;;;;;2.74;100.00;99906.81;5034309;28;20086;-79
2022/02/20 07:08:07;;;;;;;4.80;3.40;;;;;;;2.74;100.00;99909.44;5033390;28;20098;-79
2022/02/20 07:10:34;;;;;;;5.67;3.20;;;;;;;2.80;100.00;99916.41;5001722;28;20095;-79
2022/02/20 07:13:01;;;;;;;4.33;3.10;;;;;;;2.69;100.00;99913.81;5024369;28;20124;-81
2022/02/20 07:15:28;;;;;;;5.40;3.10;;;;;;;2.81;100.00;99916.38;5035633;28;20037;-79
2022/02/20 07:17:55;;;;;;;5.37;3.63;;;;;;;2.76;100.00;99923.34;5005551;28;20040;-78
2022/02/20 07:20:22;;;;;;;6.00;3.40;;;;;;;2.67;100.00;99912.91;5017271;28;20532;-80
2022/02/20 07:22:48;;;;;;;4.90;3.57;;;;;;;2.68;100.00;99922.47;5018123;28;20127;-79
2022/02/20 07:25:15;;;;;;;4.83;3.50;;;;;;;2.63;100.00;99913.78;5016143;28;20107;-82
2022/02/20 07:27:43;;;;;;;5.57;3.40;;;;;;;2.66;100.00;99919.00;5019060;28;20659;-79
2022/02/20 07:30:12;;;;;;;5.83;5.07;;;;;;;2.86;100.00;99913.78;5019158;28;20069;-79
2022/02/20 07:32:39;;;;;;;10.00;6.77;;;;;;;2.92;100.00;99915.50;5035743;28;20118;-79
2022/02/20 07:35:07;;;;;;;9.33;6.80;;;;;;;2.96;100.00;99919.84;5032393;28;20040;-80
2022/02/20 07:37:33;;;;;;;6.23;5.03;;;;;;;3.12;100.00;99928.53;5036563;28;20076;-81
2022/02/20 07:40:00;;;;;;;7.33;5.10;;;;;;;3.19;100.00;99922.41;5041858;28;20049;-78
2022/02/20 07:42:27;;;;;;;5.93;5.17;;;;;;;3.33;100.00;99931.06;5027095;28;20049;-79
2022/02/20 07:44:54;;;;;;;5.50;5.00;;;;;;;3.38;100.00;99931.94;5034588;28;20099;-80
2022/02/20 07:47:21;;;;;;;6.73;4.97;;;;;;;3.37;100.00;99931.06;5047879;28;20095;-79
2022/02/20 07:49:48;;;;;;;5.07;3.60;;;;;;;3.35;100.00;99939.75;5035570;28;20033;-80
2022/02/20 07:52:15;;;;;;;4.03;3.37;;;;;;;3.36;100.00;99938.88;5022379;28;20049;-79
2022/02/20 07:54:42;;;;;;;5.03;3.70;;;;;;;3.40;100.00;99945.84;5040816;28;20039;-78
2022/02/20 07:57:09;;;;;;;5.13;3.93;;;;;;;3.25;100.00;99948.50;5021391;28;20058;-79
2022/02/20 07:59:36;;;;;;;6.10;3.70;;;;;;;3.24;100.00;99942.41;5040036;28;20087;-78
2022/02/20 08:02:04;;;;;;;4.80;3.80;;;;;;;3.32;100.00;99952.84;5042532;28;20055;-80
2022/02/20 08:04:30;;;;;;;5.67;3.80;;;;;;;3.30;100.00;99955.44;5009562;28;20411;-79
2022/02/20 08:06:57;;;;;;;5.20;4.03;;;;;;;3.37;100.00;99961.53;5024651;28;20044;-79
2022/02/20 08:09:24;;;;;;;4.90;3.80;;;;;;;3.40;100.00;99958.91;5039094;28;20407;-80
2022/02/20 08:11:51;;;;;;;9.67;8.07;;;;;;;3.45;100.00;99962.38;5012100;28;20065;-77
2022/02/20 08:14:17;;;;;;;42.57;25.17;;;;;;;3.52;100.00;99968.44;5029677;28;20037;-79
2022/02/20 08:16:44;;;;;;;5.87;4.50;;;;;;;3.51;100.00;99956.25;5019039;28;20033;-80
2022/02/20 08:19:11;;;;;;;18.60;10.63;;;;;;;3.51;100.00;99964.09;5021125;28;20040;-78
2022/02/20 08:21:38;;;;;;;24.07;14.33;;;;;;;3.56;100.00;99967.56;5014383;28;20055;-78
2022/02/20 08:24:05;;;;;;;7.70;5.50;;;;;;;3.58;100.00;99963.19;5034388;28;20033;-77
2022/02/20 08:26:31;;;;;;;18.20;11.27;;;;;;;3.65;100.00;99964.91;5034578;28;20044;-79
2022/02/20 08:28:58;;;;;;;60.47;32.27;;;;;;;3.74;100.00;99969.25;5029434;28;20045;-79
2022/02/20 08:31:24;;;;;;;26.33;16.87;;;;;;;3.70;100.00;99976.25;5013062;28;20094;-78
2022/02/20 08:33:53;;;;;;;16.33;11.07;;;;;;;3.69;100.00;99966.63;5028091;28;20025;-78
2022/02/20 08:36:20;;;;;;;6.10;5.13;;;;;;;3.84;100.00;99969.19;5032159;28;20045;-78
2022/02/20 08:38:47;;;;;;;5.90;5.37;;;;;;;3.89;100.00;99969.19;5021327;28;20599;-77
2022/02/20 08:41:14;;;;;;;5.20;4.23;;;;;;;3.87;100.00;99978.78;5035048;28;20478;-79
2022/02/20 08:43:41;;;;;;;4.77;4.10;;;;;;;3.97;100.00;99984.84;5016241;28;20492;-81
2022/02/20 08:46:08;;;;;;;5.20;4.67;;;;;;;4.04;100.00;99979.56;5021766;28;20499;-79
2022/02/20 08:48:36;;;;;;;5.03;3.70;;;;;;;4.15;100.00;99984.75;5034948;28;20723;-79
2022/02/20 08:51:07;;;;;;;7.90;5.87;;;;;;;4.20;100.00;99983.84;5012642;28;20110;-79
2022/02/20 08:53:35;;;;;;;5.40;3.80;;;;;;;4.23;100.00;99983.81;5016128;28;20493;-78
2022/02/20 08:56:03;;;;;;;7.00;4.90;;;;;;;4.33;100.00;99982.00;5026792;28;20057;-82
2022/02/20 08:58:30;;;;;;;6.07;4.93;;;;;;;4.46;100.00;99983.69;5012508;28;20214;-80
2022/02/20 09:00:57;;;;;;;4.53;3.63;;;;;;;4.39;100.00;99994.19;5050447;28;20039;-79
2022/02/20 09:03:24;;;;;;;5.37;3.53;;;;;;;4.39;100.00;99987.22;5014071;28;20053;-80
2022/02/20 09:05:50;;;;;;;3.97;3.23;;;;;;;4.43;100.00;99991.53;5016761;28;20412;-77
2022/02/20 09:08:17;;;;;;;3.50;2.83;;;;;;;4.52;100.00;99994.09;5043255;28;20645;-79
2022/02/20 09:10:45;;;;;;;3.83;2.90;;;;;;;4.49;100.00;100004.59;5029545;28;20267;-81
2022/02/20 09:13:11;;;;;;;4.03;3.03;;;;;;;4.36;100.00;100007.28;5029296;28;20095;-79
2022/02/20 09:15:38;;;;;;;4.30;3.40;;;;;;;4.21;100.00;100000.41;4994212;28;20045;-79
2022/02/20 09:18:05;;;;;;;3.63;3.03;;;;;;;4.12;100.00;100008.25;5027728;28;20041;-78
2022/02/20 09:20:32;;;;;;;5.57;3.10;;;;;;;4.03;100.00;100003.06;5021740;28;20072;-81
2022/02/20 09:23:03;;;;;;;4.27;3.17;;;;;;;4.03;100.00;100003.06;4999895;28;20045;-79
2022/02/20 09:25:29;;;;;;;5.00;3.53;;;;;;;3.93;100.00;100008.34;5027894;28;20040;-79
2022/02/20 09:27:56;;;;;;;4.13;3.17;;;;;;;3.92;100.00;100000.53;5015583;28;20099;-81
2022/02/20 09:30:23;;;;;;;4.30;2.97;;;;;;;3.79;100.00;100010.16;5030296;28;20053;-79
2022/02/20 09:32:50;;;;;;;4.53;3.37;;;;;;;3.80;100.00;100008.41;5015819;28;20043;-81
2022/02/20 09:35:16;;;;;;;4.27;3.50;;;;;;;3.91;100.00;100004.00;5028822;28;20033;-77
2022/02/20 09:37:43;;;;;;;3.70;3.00;;;;;;;4.00;100.00;100008.31;5026586;28;20052;-78
2022/02/20 09:40:11;;;;;;;3.97;3.17;;;;;;;4.07;100.00;100003.06;4998736;28;20045;-82
2022/02/20 09:42:38;;;;;;;5.00;3.50;;;;;;;4.18;100.00;100003.88;5011101;28;20045;-79
2022/02/20 09:45:06;;;;;;;6.47;3.17;;;;;;;4.24;100.00;99998.63;5027183;28;20037;-78
2022/02/20 09:47:37;;;;;;;4.50;3.10;;;;;;;4.20;100.00;100001.25;5022690;28;20111;-79
2022/02/20 09:50:04;;;;;;;4.70;3.53;;;;;;;4.12;100.00;100003.03;5028376;28;20132;-80
2022/02/20 09:52:31;;;;;;;4.60;3.10;;;;;;;4.15;100.00;100003.03;5013370;28;20106;-77
2022/02/20 09:54:58;;;;;;;5.57;3.43;;;;;;;4.13;100.00;99994.34;5011686;28;20040;-76
2022/02/20 09:57:25;;;;;;;4.87;3.40;;;;;;;4.15;100.00;99992.59;5012858;28;20041;-77
2022/02/20 09:59:52;;;;;;;4.07;3.00;;;;;;;4.14;100.00;100001.31;5026046;28;20033;-77
2022/02/20 10:02:20;;;;;;;4.60;3.10;;;;;;;4.14;100.00;99996.94;4997778;28;20048;-79
2022/02/20 10:04:52;;;;;;;4.73;3.00;;;;;;;4.17;100.00;99998.66;5018243;28;20674;-79
2022/02/20 10:07:33;;;;;;;4.93;3.37;;;;;;;4.24;100.00;99987.31;5004913;28;20041;-81
2022/02/20 10:10:06;;;;;;;5.60;4.00;;;;;;;4.24;100.00;99987.31;5032951;28;20096;-80
2022/02/20 10:12:34;;;;;;;4.77;3.40;;;;;;;4.33;100.00;99986.38;4999738;28;20095;-80
2022/02/20 10:15:01;;;;;;;5.00;3.67;;;;;;;4.36;100.00;99979.38;5015484;28;20037;-80
2022/02/20 10:17:29;;;;;;;4.43;3.23;;;;;;;4.37;100.00;99980.22;5019932;28;20037;-80
2022/02/20 10:19:58;;;;;;;4.13;3.23;;;;;;;4.36;100.00;99974.13;5034404;28;20052;-80
2022/02/20 10:22:33;;;;;;;5.43;3.53;;;;;;;4.30;100.00;99979.44;5020853;28;20094;-80
2022/02/20 10:25:05;;;;;;;5.38;3.92;;;;;;;4.30;100.00;99982.03;5032404;28;20037;-79
2022/02/20 10:27:33;;;;;;;6.73;4.90;;;;;;;4.34;100.00;99962.81;5019805;28;20063;-79
2022/02/20 10:30:11;;;;;;;9.50;5.40;;;;;;;4.42;100.00;99960.16;5008285;28;20041;-80
2022/02/20 10:32:38;;;;;;;17.47;9.90;;;;;;;4.59;100.00;99968.75;5036295;28;20056;-80
2022/02/20 10:35:09;;;;;;;8.63;5.07;;;;;;;4.69;100.00;99962.56;5022282;28;20048;-80
2022/02/20 10:37:39;;;;;;;14.87;8.67;;;;;;;4.67;100.00;99964.34;5053648;28;20438;-79
2022/02/20 10:40:31;;;;;;;10.80;6.30;;;;;;;4.66;100.00;99964.34;5000516;28;20033;-79
2022/02/20 10:43:01;;;;;;;8.57;5.03;;;;;;;4.64;100.00;99960.91;5027316;28;20045;-80
2022/02/20 10:45:28;;;;;;;13.80;7.00;;;;;;;4.60;100.00;99953.94;5020716;28;20038;-79
2022/02/20 10:47:56;;;;;;;111.57;56.63;;;;;;;4.59;100.00;99942.59;5043232;28;20048;-79
2022/02/20 10:50:26;;;;;;;22.30;12.23;;;;;;;4.58;100.00;99935.63;5019771;28;20447;-80
2022/02/20 10:53:14;;;;;;;27.03;14.97;;;;;;;4.63;100.00;99933.00;5019667;28;20081;-79
2022/02/20 10:55:51;;;;;;;17.67;9.57;;;;;;;4.66;100.00;99919.88;5036043;28;20143;-79
2022/02/20 10:58:20;;;;;;;;;;;;;;;4.75;100.00;99920.66;5003454;28;20048;-79
2022/02/20 11:01:00;;;;;;;5.53;3.73;;;;;;;4.72;100.00;99905.00;5024511;28;20026;-79
2022/02/20 11:03:30;;;;;;;20.43;9.43;;;;;;;4.73;100.00;99901.50;5033971;28;20070;-80
2022/02/20 11:06:03;;;;;;;12.23;6.50;;;;;;;4.77;100.00;99891.84;5004679;28;20045;-80
2022/02/20 11:08:31;;;;;;;40.47;21.17;;;;;;;4.77;100.00;99887.50;4993769;28;20045;-79
2022/02/20 11:11:36;;;;;;;17.50;9.83;;;;;;;4.64;99.32;99878.03;5000476;28;20107;-80
2022/02/20 11:13:46;;;;;;;5.80;3.67;;;;;;;4.75;100.00;99870.94;5032743;28;20719;-80
2022/02/20 11:16:14;;;;;;;6.73;4.60;;;;;;;4.73;100.00;99864.88;5012864;28;20045;-79
2022/02/20 11:18:41;;;;;;;7.90;5.03;;;;;;;4.76;100.00;99863.97;5023548;28;20060;-82
2022/02/20 11:21:09;;;;;;;7.07;4.73;;;;;;;4.74;100.00;99845.66;4991266;28;20045;-83
2022/02/20 11:23:36;;;;;;;8.30;5.37;;;;;;;4.74;100.00;99839.56;5003414;28;20055;-80
2022/02/20 11:26:04;;;;;;;6.87;4.30;;;;;;;4.90;100.00;99828.06;5015429;28;20091;-80
2022/02/20 11:28:31;;;;;;;7.83;4.40;;;;;;;4.94;100.00;99815.78;5018529;28;20053;-82
2022/02/20 11:30:58;;;;;;;6.63;5.10;;;;;;;4.99;100.00;99811.38;5012499;28;20045;-81
2022/02/20 11:33:25;;;;;;;7.87;4.80;;;;;;;5.11;100.00;99805.13;5035720;28;20053;-78